»·PEaware :: N47DT KSNA-KAVX

N47DT :: KSNA-KAVX

FLIGHT INFORMATION

Flight Status: Arrived
Operator: Privately registered:
United States
More flights under this callsign
Pilot: Wayne C. (13792)
Aircraft: CESSNA T210 TURBO CENTURION
(T210)
More flights by this aircraft type
Origin: KSNA John Wayne-Orange Co
United States
Destination: KAVX Catalina
United States
More flights between these airports :: More routes between these airports
Route: SLI V21 SXC
File this flight plan on PilotEdge
Remarks: i7
Altitude:
(Current/Filed)
4,000ft
Speed:
(Current/Filed)
130kts
Departed: 30-May-20 01:43 PM
Arrived: 30-May-20 02:12 PM
Distance/Time
Traveled:
32nm/0:29
Distance/Time
To Go:
Arrived

Flight Plot

Page will automatically refresh every two minutes.


Map Options




Map Legend


Flown Route
Filed Route
Departure Airport
Arrival Airport
Navaid (VOR, NDB)
Fix

Horizontal Profiles

Position Reports

Time Latitude Longitude Heading Altitude Ground
Speed
30-May-20 13:24 33.667211 -117.872108 220 60ft 0kts
30-May-20 13:25 33.667211 -117.872108 220 60ft 0kts
30-May-20 13:26 33.667211 -117.872108 220 60ft 0kts
30-May-20 13:27 33.667211 -117.872108 220 60ft 0kts
30-May-20 13:28 33.667211 -117.872108 220 60ft 0kts
30-May-20 13:29 33.667211 -117.872108 220 60ft 0kts
30-May-20 13:30 33.667211 -117.872108 220 60ft 0kts
30-May-20 13:31 33.667211 -117.872108 220 60ft 0kts
30-May-20 13:32 33.667211 -117.872108 220 60ft 0kts
30-May-20 13:33 33.667211 -117.872108 220 60ft 0kts
30-May-20 13:34 33.667168 -117.872207 265 60ft 5kts
30-May-20 13:35 33.669146 -117.870911 43 60ft 22kts
30-May-20 13:36 33.672436 -117.867927 30 60ft 20kts
30-May-20 13:37 33.674391 -117.866931 27 60ft 14kts
30-May-20 13:38 33.678712 -117.864202 29 60ft 25kts
30-May-20 13:39 33.679937 -117.863597 304 60ft 0kts
30-May-20 13:40 33.679937 -117.863597 304 60ft 0kts
30-May-20 13:41 33.679396 -117.864620 208 60ft 36kts
30-May-20 13:42 33.665750 -117.883269 241 949ft 109kts
30-May-20 13:43 33.652061 -117.914817 241 2537ft 101kts
30-May-20 13:44 33.639754 -117.943879 241 3878ft 97kts
30-May-20 13:45 33.623751 -117.981469 241 4020ft 133kts
30-May-20 13:46 33.604470 -118.025564 234 4018ft 131kts
30-May-20 13:47 33.579181 -118.067523 234 4018ft 127kts
30-May-20 13:48 33.553775 -118.111454 235 4023ft 125kts
30-May-20 13:49 33.527363 -118.157209 237 4031ft 125kts
30-May-20 13:50 33.500142 -118.204312 238 4040ft 126kts
30-May-20 13:51 33.470808 -118.226351 189 4045ft 136kts
30-May-20 13:52 33.432770 -118.229725 189 4046ft 137kts
30-May-20 13:53 33.394707 -118.233144 189 4051ft 138kts
30-May-20 13:54 33.367084 -118.251477 277 4058ft 122kts
30-May-20 13:55 33.369652 -118.292433 277 4060ft 124kts
30-May-20 13:56 33.371490 -118.334011 277 4064ft 126kts
30-May-20 13:57 33.373227 -118.376110 277 4064ft 126kts
30-May-20 13:58 33.381034 -118.415134 327 4062ft 123kts
30-May-20 13:59 33.415279 -118.414308 3 4049ft 128kts
30-May-20 14:00 33.451816 -118.408696 3 3767ft 137kts
30-May-20 14:01 33.489592 -118.403113 3 3562ft 131kts
30-May-20 14:02 33.519674 -118.422917 321 3463ft 125kts
30-May-20 14:03 33.547487 -118.422882 69 3460ft 134kts
30-May-20 14:04 33.520045 -118.398719 192 3239ft 149kts
30-May-20 14:05 33.478174 -118.404839 189 2942ft 157kts
30-May-20 14:06 33.433780 -118.409196 157 2553ft 154kts
30-May-20 14:07 33.407243 -118.412236 242 1983ft 78kts
30-May-20 14:08 33.418074 -118.415729 66 2525ft 113kts
30-May-20 14:09 33.424725 -118.383132 138 2429ft 105kts
30-May-20 14:10 33.411070 -118.405562 238 1877ft 104kts
30-May-20 14:11 33.402415 -118.419623 128 1606ft 6kts
30-May-20 14:12 33.402941 -118.418578 55 1605ft 6kts
30-May-20 14:13 33.403678 -118.417194 93 1599ft 0kts

Navigation Log

Ident Type
Flight plan parsing failed, navigation log unavailable